• Join FlightAware (Why Join?)
  • Login
  • US Flag 
03:59AM EST


 

Airport Tracker/Info


-or-


 

Live Flight TrackerFlight Track Log ✈ BSK8641 ✈ 04-May-2013 ✈ KANB - KJQF

Flight Track Log - Related Links

Times and Time Zones

All times are in EDT time to prevent confusion due to time zone crossing. See the BSK8641 flight status page for this flight to view local times or setup timezone preferences in your user account.

Time Position Orientation Groundspeed Altitude Reporting Facility
EDT Latitude Longitude Course Direction KTS MPH feet Rate Location/Type
10:45PM 33.5961 -85.7844 86° East 181 208 3,500  Level Atlanta Center
10:45PM 33.5944 -85.7622 95° East 223 257 4,200 1,020 Climbing Atlanta Center
10:46PM 33.6019 -85.6550 85° East 271 312 5,100 1,500 Climbing Atlanta Center
10:47PM 33.6053 -85.5678 87° East 264 304 7,600 2,460 Climbing Atlanta Center
10:48PM 33.6061 -84.9469 86° East  Level FlightAware Approximate
10:48PM 33.6064 -85.4856 89° East 259 298 10,100  Level Atlanta Center
10:54PM 33.6244 -84.6748 89° East 436 502 24,800 2,340 Climbing FlightAware ADS-B
10:55PM 33.6257 -84.5971 89° East 449 517 25,600 1,380 Climbing FlightAware ADS-B
10:56PM 33.6290 -84.4730 88° East 468 539 26,900 1,680 Climbing FlightAware
10:56PM 33.6366 -84.4140 81° East 477 549 27,600 2,520 Climbing FlightAware ADS-B
10:56PM 33.6427 -84.3867 75° East 481 554 28,000 1,860 Climbing FlightAware ADS-B
10:57PM 33.6647 -84.3083 71° East 487 560 28,900 1,560 Climbing FlightAware ADS-B
10:57PM 33.6868 -84.2308 71° East 493 567 29,600 1,380 Climbing FlightAware ADS-B
10:58PM 33.7109 -84.1454 71° East 499 574 30,400 1,320 Climbing FlightAware ADS-B
10:58PM 33.7338 -84.0639 71° East 506 582 31,000 540 Climbing FlightAware ADS-B
10:59PM 33.7568 -83.9816 71° East 521 600 31,000  Level FlightAware ADS-B
10:59PM 33.7801 -83.8982 71° East 526 605 31,000  Level FlightAware ADS-B
11:00PM 33.8100 -83.7920 71° East 527 606 31,000  Level FlightAware
11:00PM 33.8203 -83.7541 72° East 527 606 31,000  Level FlightAware ADS-B
11:01PM 33.8624 -83.6015 72° East 527 606 31,000  Level FlightAware ADS-B
11:02PM 33.9000 -83.4640 72° East 521 600 31,000  Level FlightAware
11:03PM 33.9300 -83.3550 72° East 519 597 31,000  Level FlightAware
11:03PM 33.9640 -83.2290 72° East 517 595 31,000  Level FlightAware
11:04PM 33.9930 -83.1240 72° East 515 593 31,000  Level FlightAware
11:05PM 34.0275 -82.9955 72° East 516 594 31,000  Level FlightAware ADS-B
11:05PM 34.0529 -82.9020 72° East 517 595 31,000  Level FlightAware ADS-B
11:06PM 34.0757 -82.8176 72° East 518 596 31,000 -600 Level FlightAware ADS-B
11:07PM 34.1140 -82.6760 72° East 495 570 30,200 -960 Descending FlightAware
11:08PM 34.1450 -82.5560 73° East 483 556 29,400 -1,560 Descending FlightAware
11:08PM 34.1720 -82.4560 72° East 473 544 28,000 -2,220 Descending FlightAware
11:08PM 34.1900 -82.4220 57° Northeast 471 542 27,400 -3,540 Descending FlightAware
11:09PM 34.2440 -82.3350 53° Northeast 480 552 24,800 -3,060 Descending FlightAware
11:10PM 34.3030 -82.2420 52° Northeast 457 526 23,100 -2,220 Descending FlightAware
11:11PM 34.3500 -82.1630 54° Northeast 424 488 21,700 -1,980 Descending FlightAware
11:11PM 34.4010 -82.0830 52° Northeast 414 476 20,300 -1,920 Descending FlightAware
11:12PM 34.4450 -82.0120 53° Northeast 407 468 19,000 -2,100 Descending FlightAware
11:13PM 34.4980 -81.9270 53° Northeast 398 458 17,400 -1,200 Descending FlightAware
11:13PM 34.5320 -81.8720 53° Northeast 398 458 17,400  Level FlightAware
11:14PM 34.5690 -81.8120 53° Northeast 398 458 17,400  Level FlightAware
11:15PM 34.6160 -81.7360 53° Northeast 398 458 17,400  Level FlightAware
11:15PM 34.6540 -81.6750 53° Northeast 398 458 17,400  Level FlightAware
11:16PM 34.6920 -81.6140 53° Northeast 398 458 17,400 -3,840 Level FlightAware
11:17PM 34.7758 -81.4897 53° Northeast 301 346 10,900 -3,780 Descending Atlanta Center
11:18PM 34.8200 -81.4075 57° Northeast 276 318 9,600 -1,260 Descending Atlanta Center
11:19PM 34.8578 -81.3278 60° Northeast 277 319 8,300 -1,260 Descending Atlanta Center
11:20PM 34.9000 -81.2531 55° Northeast 277 319 7,000 -1,260 Descending Atlanta Center
11:21PM 34.9403 -81.1831 55° Northeast 260 299 5,800 -1,260 Descending Atlanta Center
11:22PM 34.9803 -81.1108 56° Northeast 260 299 4,500 -900 Descending Atlanta Center
11:23PM 35.0203 -81.0383 56° Northeast 249 287 4,000 -240 Descending Atlanta Center
11:24PM 35.0581 -80.9636 58° Northeast 214 246 4,000  Level Atlanta Center
11:25PM 35.0897 -80.9014 58° Northeast 217 250 4,000  Level Atlanta Center
11:26PM 35.1236 -80.8392 56° Northeast 219 252 4,000  Level Atlanta Center
11:27PM 35.1594 -80.7717 57° Northeast 218 251 4,000  Level Atlanta Center
11:28PM 35.1892 -80.7094 60° Northeast 220 253 4,000  Level Atlanta Center
11:29PM 35.2356 -80.6569 43° Northeast 236 272 4,000  Level Atlanta Center
11:31PM 35.2972 -80.6186 27° Northeast 241 277 4,000  Level Atlanta Center
11:32PM 35.3547 -80.5908 22° Northeast 238 274 4,000  Level Atlanta Center
11:33PM 35.4086 -80.5758 13° North 193 222 4,000  Level Atlanta Center
11:34PM 35.4603 -80.5608 13° North 186 214 4,000  Level Atlanta Center
11:35PM 35.5164 -80.5458 12° North 189 217 4,000 -360 Level Atlanta Center
11:36PM 35.5611 -80.5797 328° Northwest 222 255 3,300 -540 Descending Atlanta Center
11:36PM 35.5564 -80.6411 265° West 226 260 3,000 -180 Descending Atlanta Center
11:37PM 35.5139 -80.6836 219° Southwest 191 220 3,000 -480 Level Atlanta Center
11:38PM 35.4683 -80.6958 192° South 166 191 2,100 -900 Descending Atlanta Center
11:39PM 35.4225 -80.7028 187° South 147 169 1,300 -540 Descending Atlanta Center
11:41PM 35.3936 -80.7114 194° South 145 167 1,100 -240 Descending Atlanta Center